Create Custom Reports and Graphics: Custom Report

Robertsbridge Vineyards

Current Conditions

5/17/22 9:15 PM (-07:00)
Updated Every 15 Minutes
Temp 60.8 °F   5.1
RH 51 %   15
Dew Pt 42.6 °F   1.8
Wet Bulb 51.3 °F   1.1
Daily Min Temp 39.8 °F   0.2
Daily Max Temp 83.7 °F   6.4
Yest MinT 39.6 °F
Yest MaxT 77.3 °F
BatVolt 13.0 V   0.1

Last 30 Days

Robertsbridge Vineyards

Daily Data | America/Los_Angeles
as of 5/17/22 9:23 PM PDT
Date Daily Max Temp (°F) Time of Max Temp Daily Min Temp (°F) Time of Min Temp Dew Pt (°F) Max RH (%) Min RH (%) Hrs <= 32F (hrs) Hrs <= 28F (hrs) Hrs 70-85F (hrs) Hrs > 95F (hrs) Powdery Mildew Stress (pts) GDDs (DL) GDDs (Mx/Mn) Chilling <=45F (hrs) MinBV Day (V)
5/16/22 77.3 1550 39.6 0513 42.4 95 27 0.0 0.0 6.92 0.00 60 10.4 8.4 6.0 12.7
5/15/22 80.0 1452 44.9 0059 45.9 96 27 0.0 0.0 8.86 0.00 40 12.6 12.4 0.0 12.7
5/14/22 85.3 1631 41.2 0554 44.8 98 18 0.0 0.0 9.64 0.00 20 14.9 13.2 4.6 12.7
5/13/22 74.2 1654 37.1 0549 45.2 96 38 0.0 0.0 5.37 0.00 0 9.9 5.7 6.4 12.7
5/12/22 67.0 1541 30.8 0452 36.0 97 31 3.6 0.0 0.00 0.00 0 4.4 0.0 9.8 12.6
5/11/22 65.5 1540 28.9 0618 33.7 98 25 6.3 0.0 0.00 0.00 0 4.2 0.0 11.2 12.6
5/10/22 56.9 1307 28.0 0548 32.1 98 26 6.9 0.0 0.00 0.00 0 0.5 0.0 16.1 12.6
5/9/22 55.3 1309 32.1 0101 33.7 94 31 0.0 0.0 0.00 0.00 0 0.3 0.0 14.7 12.6
5/8/22 52.5 1506 31.4 0626 34.9 95 45 0.7 0.0 0.00 0.00 10 0.1 0.0 16.3 12.6
5/7/22 66.2 1542 40.9 0057 40.2 95 34 0.0 0.0 0.00 0.00 20 4.2 3.5 3.1 12.7
5/6/22 65.8 1306 45.8 0005 48.7 95 54 0.0 0.0 0.00 0.00 30 6.3 5.8 0.0 12.7
5/5/22 68.4 1313 47.7 0239 42.7 92 26 0.0 0.0 0.00 0.00 40 7.7 8.0 0.0 12.7
5/4/22 86.4 1633 40.5 0501 37.8 85 14 0.0 0.0 9.93 0.00 50 15.2 13.5 4.7 12.6
5/3/22 80.3 1656 31.1 0527 33.0 91 15 1.3 0.0 6.62 0.00 30 10.5 5.7 7.0 12.6
5/2/22 62.4 1356 35.1 0059 36.1 85 32 0.0 0.0 0.00 0.00 10 3.6 0.0 7.6 12.7
5/1/22 79.0 1609 34.1 0613 35.8 97 11 0.0 0.0 6.30 0.00 20 9.6 6.5 8.4 12.6
4/30/22 67.4 1434 39.3 0101 42.6 96 43 0.0 0.0 0.00 0.00 0 6.2 3.4 9.6 12.6
4/29/22 73.6 1600 31.4 0559 33.7 95 9 1.0 0.0 2.78 0.00 0 7.3 2.5 8.8 12.6
4/28/22 64.7 1613 35.4 0622 35.3 92 28 0.0 0.0 0.00 0.00 0 3.4 0.0 10.9 12.6
4/27/22 69.4 1552 31.8 0636 34.8 96 20 0.4 0.0 0.00 0.00 0 5.5 0.6 10.4 12.6
4/26/22 70.1 1514 39.5 0059 40.3 91 29 0.0 0.0 0.06 0.00 0 6.1 4.8 3.8 12.7
4/25/22 74.6 1526 39.3 0225 39.9 88 25 0.0 0.0 4.99 0.00 10 8.6 7.0 6.6 12.6
4/24/22 77.2 1600 36.2 0627 38.5 97 19 0.0 0.0 7.01 0.00 20 9.7 6.7 8.6 12.7
4/23/22 71.9 1602 33.6 0605 37.4 100 22 0.0 0.0 1.82 0.00 0 6.8 2.7 9.7 12.6
4/22/22 63.8 1620 35.0 0654 39.0 100 26 0.0 0.0 0.00 0.00 0 2.8 0.0 11.4 12.7
4/21/22 55.2 1320 39.5 0644 40.4 100 46 0.0 0.0 0.00 0.00 0 0.5 0.0 12.4 12.7
4/20/22 55.5 1350 33.3 0326 42.0 100 65 0.0 0.0 0.00 0.00 0 0.7 0.0 6.8 12.7
4/19/22 59.7 1753 35.1 0051 39.6 100 43 0.0 0.0 0.00 0.00 0 1.6 0.0 10.9 12.6
4/18/22 59.9 1244 30.6 0419 40.6 96 47 4.4 0.0 0.00 0.00 0 1.5 0.0 7.3 12.6
4/17/22 68.0 1403 29.7 0641 29.7 98 8 4.4 0.0 0.00 0.00 0 5.0 0.0 12.2 12.6
Max 86.4 - 47.7 - 48.7 100 65 6.9 0.0 9.93 0.00 - 15.2 13.5 16.3 12.7
Avg - - - - 38.6 - - 1.0 0.0 2.34 0.00 - 6.0 3.7 8.2 -
Min 52.5 - 28.0 - 29.7 85 8 0.0 0.0 0.00 0.00 - 0.1 0.0 0.0 12.6
Total - - - - - - - 29.0 0.0 70.31 0.00 - 180.1 110.6 245.2 -